createdAt,value
2022-11-16T00:02:14.802Z,98528.97
2022-11-16T00:04:41.965Z,98539.22
2022-11-16T00:07:09.300Z,98544.38
2022-11-16T00:09:36.152Z,98542.66
2022-11-16T00:12:06.553Z,98552.97
2022-11-16T00:14:35.608Z,98552.97
2022-11-16T00:17:03.529Z,98545.25
2022-11-16T00:19:30.653Z,98554.66
2022-11-16T00:21:57.745Z,98555.53
2022-11-16T00:24:24.413Z,98549.53
2022-11-16T00:26:54.137Z,98546.91
2022-11-16T00:29:23.505Z,98552.06
2022-11-16T00:31:50.934Z,98545.22
2022-11-16T00:34:18.294Z,98552.09
2022-11-16T00:36:45.090Z,98549.53
2022-11-16T00:39:13.618Z,98548.66
2022-11-16T00:41:40.958Z,98550.38
2022-11-16T00:44:07.784Z,98551.22
2022-11-16T00:46:34.479Z,98558.09
2022-11-16T00:49:01.018Z,98556.38
2022-11-16T00:51:27.531Z,98558.09
2022-11-16T00:53:54.007Z,98550.41
2022-11-16T00:56:20.790Z,98552.09
2022-11-16T00:58:47.473Z,98549.50
2022-11-16T01:01:14.615Z,98551.22
2022-11-16T01:03:41.273Z,98542.69
2022-11-16T01:06:12.134Z,98546.09
2022-11-16T01:08:40.154Z,98551.22
2022-11-16T01:11:26.512Z,98538.38
2022-11-16T01:13:53.477Z,98538.38
2022-11-16T01:16:22.626Z,98533.22
2022-11-16T01:18:54.513Z,98519.50
2022-11-16T01:21:22.810Z,98516.09
2022-11-16T01:23:49.295Z,98519.53
2022-11-16T01:26:15.882Z,98520.38
2022-11-16T01:28:42.449Z,98525.53
2022-11-16T01:31:10.023Z,98528.94
2022-11-16T01:33:36.789Z,98520.38
2022-11-16T01:36:03.639Z,98534.97
2022-11-16T01:38:30.340Z,98538.38
2022-11-16T01:40:56.919Z,98533.25
2022-11-16T01:43:25.527Z,98541.81
2022-11-16T01:45:52.038Z,98537.53
2022-11-16T01:48:25.733Z,98534.09
2022-11-16T01:50:56.016Z,98507.53
2022-11-16T01:53:22.537Z,98507.56
2022-11-16T01:55:49.574Z,98509.22
2022-11-16T01:58:21.024Z,98506.69
2022-11-16T02:00:49.114Z,98507.53
2022-11-16T02:03:21.209Z,98491.25
2022-11-16T02:06:08.920Z,98489.53
2022-11-16T02:09:12.502Z,98491.25
2022-11-16T02:11:59.126Z,98493.81
2022-11-16T02:14:34.567Z,98492.97
2022-11-16T02:17:27.551Z,98481.84
2022-11-16T02:20:38.274Z,98496.41
2022-11-16T02:23:37.282Z,98491.28
2022-11-16T02:26:25.121Z,98498.97
2022-11-16T02:29:28.657Z,98485.25
2022-11-16T02:32:23.141Z,98484.41
2022-11-16T02:34:57.516Z,98480.97
2022-11-16T02:37:28.684Z,98481.88
2022-11-16T02:40:00.510Z,98478.44
2022-11-16T02:42:34.034Z,98476.72
2022-11-16T02:45:03.038Z,98477.56
2022-11-16T02:47:33.690Z,98481.84
2022-11-16T02:50:10.241Z,98481.00
2022-11-16T02:52:38.813Z,98477.59
2022-11-16T02:55:05.485Z,98469.00
2022-11-16T02:57:40.542Z,98460.44
2022-11-16T03:00:09.840Z,98466.44
2022-11-16T03:02:36.268Z,98461.31
2022-11-16T03:05:09.858Z,98457.88
2022-11-16T03:07:44.296Z,98448.47
2022-11-16T03:10:11.466Z,98448.47
2022-11-16T03:12:41.048Z,98452.75
2022-11-16T03:15:12.273Z,98453.59
2022-11-16T03:17:44.419Z,98463.03
2022-11-16T03:20:17.757Z,98450.16
2022-11-16T03:23:00.365Z,98450.16
2022-11-16T03:25:32.668Z,98445.84
2022-11-16T03:28:08.138Z,98444.16
2022-11-16T03:30:41.828Z,98433.00
2022-11-16T03:33:22.721Z,98440.72
2022-11-16T03:36:04.588Z,98437.31
2022-11-16T03:38:33.721Z,98439.88
2022-11-16T03:41:06.393Z,98463.88
2022-11-16T03:43:35.008Z,98447.59
2022-11-16T03:46:01.821Z,98463.00
2022-11-16T03:48:39.505Z,98460.44
2022-11-16T03:51:08.682Z,98451.03
2022-11-16T03:53:35.702Z,98453.59
2022-11-16T03:56:02.284Z,98428.78
2022-11-16T03:58:28.801Z,98428.75
2022-11-16T04:00:55.328Z,98429.59
2022-11-16T04:03:21.919Z,98437.31
2022-11-16T04:06:07.532Z,98441.59
2022-11-16T04:08:52.248Z,98457.03
2022-11-16T04:11:38.597Z,98447.59
2022-11-16T04:14:24.419Z,98435.63
2022-11-16T04:17:09.208Z,98446.72
2022-11-16T04:19:58.073Z,98458.72
2022-11-16T04:22:49.908Z,98435.59
2022-11-16T04:25:23.090Z,98431.34
2022-11-16T04:28:08.217Z,98427.91
2022-11-16T04:30:53.513Z,98442.47
2022-11-16T04:33:38.869Z,98439.91
2022-11-16T04:36:24.138Z,98435.63
2022-11-16T04:38:50.648Z,98446.75
2022-11-16T04:41:35.657Z,98441.59
2022-11-16T04:44:02.166Z,98434.75
2022-11-16T04:46:47.295Z,98433.03
2022-11-16T04:49:13.856Z,98417.63
2022-11-16T04:51:40.337Z,98401.41
2022-11-16T04:54:06.815Z,98397.97
2022-11-16T04:56:34.016Z,98383.41
2022-11-16T04:59:00.481Z,98376.56
2022-11-16T05:01:45.805Z,98362.91
2022-11-16T05:04:12.380Z,98367.16
2022-11-16T05:06:38.842Z,98368.88
2022-11-16T05:09:06.440Z,98370.59
2022-11-16T05:11:32.940Z,98378.28
2022-11-16T05:13:59.506Z,98374.03
2022-11-16T05:16:26.062Z,98385.13
2022-11-16T05:19:11.032Z,98391.13
2022-11-16T05:21:37.513Z,98395.38
2022-11-16T05:24:23.113Z,98388.53
2022-11-16T05:26:49.637Z,98391.09
2022-11-16T05:29:16.120Z,98383.34
2022-11-16T05:31:42.646Z,98375.69
2022-11-16T05:34:10.235Z,98369.66
2022-11-16T05:36:37.493Z,98357.75
2022-11-16T05:39:04.678Z,98357.69
2022-11-16T05:41:31.286Z,98357.69
2022-11-16T05:43:58.165Z,98354.22
2022-11-16T05:46:25.085Z,98351.69
2022-11-16T05:48:51.612Z,98361.94
2022-11-16T05:51:18.097Z,98355.09
2022-11-16T05:53:44.671Z,98351.66
2022-11-16T05:56:14.371Z,98343.09
2022-11-16T05:58:41.481Z,98340.50
2022-11-16T06:01:08.502Z,98326.03
2022-11-16T06:03:36.634Z,98309.78
2022-11-16T06:06:05.102Z,98303.78
2022-11-16T06:08:32.343Z,98296.97
2022-11-16T06:11:07.762Z,98292.69
2022-11-16T06:13:34.818Z,98302.97
2022-11-16T06:16:02.136Z,98309.78
2022-11-16T06:18:28.968Z,98321.75
2022-11-16T06:20:55.861Z,98326.00
2022-11-16T06:23:22.488Z,98325.13
2022-11-16T06:25:55.563Z,98319.16
2022-11-16T06:28:23.333Z,98329.44
2022-11-16T06:30:50.350Z,98326.00
2022-11-16T06:33:17.541Z,98333.66
2022-11-16T06:35:45.003Z,98336.16
2022-11-16T06:38:18.291Z,98328.50
2022-11-16T06:40:46.371Z,98330.22
2022-11-16T06:43:12.892Z,98325.91
2022-11-16T06:45:39.644Z,98315.69
2022-11-16T06:48:06.271Z,98315.72
2022-11-16T06:50:32.759Z,98310.56
2022-11-16T06:53:00.903Z,98312.28
2022-11-16T06:55:28.791Z,98319.91
2022-11-16T06:57:55.382Z,98309.66
2022-11-16T07:00:22.030Z,98313.13
2022-11-16T07:02:48.746Z,98317.38
2022-11-16T07:05:15.385Z,98327.63
2022-11-16T07:07:42.123Z,98319.03
2022-11-16T07:10:09.100Z,98329.31
2022-11-16T07:12:35.605Z,98331.03
2022-11-16T07:15:02.134Z,98325.91
2022-11-16T07:17:28.784Z,98322.47
2022-11-16T07:19:55.404Z,98325.03
2022-11-16T07:22:21.993Z,98315.59
2022-11-16T07:24:48.516Z,98324.22
2022-11-16T07:27:15.055Z,98323.34
2022-11-16T07:29:42.036Z,98326.78
2022-11-16T07:32:08.542Z,98325.03
2022-11-16T07:34:35.039Z,98330.16
2022-11-16T07:37:01.610Z,98323.34
2022-11-16T07:39:28.102Z,98329.38
2022-11-16T07:41:54.699Z,98331.91
2022-11-16T07:44:21.320Z,98333.63
2022-11-16T07:46:48.612Z,98331.94
2022-11-16T07:49:17.529Z,98331.06
2022-11-16T07:51:45.813Z,98337.06
2022-11-16T07:54:14.729Z,98340.50
2022-11-16T07:56:41.813Z,98350.72
2022-11-16T07:59:08.911Z,98349.06
2022-11-16T08:01:35.481Z,98351.59
2022-11-16T08:04:02.641Z,98343.06
2022-11-16T08:06:31.230Z,98342.19
2022-11-16T08:08:58.925Z,98349.91
2022-11-16T08:11:26.530Z,98349.06
2022-11-16T08:13:53.139Z,98355.94
2022-11-16T08:16:21.685Z,98353.38
2022-11-16T08:18:49.029Z,98361.06
2022-11-16T08:21:17.763Z,98352.53
2022-11-16T08:23:47.546Z,98352.56
2022-11-16T08:26:16.941Z,98353.41
2022-11-16T08:28:45.459Z,98359.41
2022-11-16T08:31:15.581Z,98359.38
2022-11-16T08:33:42.408Z,98367.16
2022-11-16T08:36:14.454Z,98370.53
2022-11-16T08:38:41.139Z,98358.59
2022-11-16T08:41:07.921Z,98364.56
2022-11-16T08:43:35.797Z,98366.31
2022-11-16T08:46:03.138Z,98363.75
2022-11-16T08:48:29.859Z,98364.59
2022-11-16T08:51:17.377Z,98378.28
2022-11-16T08:53:45.641Z,98380.84
2022-11-16T08:56:13.686Z,98384.28
2022-11-16T08:58:43.559Z,98397.97
2022-11-16T09:01:12.380Z,98405.69
2022-11-16T09:03:39.587Z,98421.94
2022-11-16T09:06:07.036Z,98435.63
2022-11-16T09:08:34.889Z,98436.47
2022-11-16T09:11:08.805Z,98444.19
2022-11-16T09:13:35.792Z,98457.88
2022-11-16T09:16:03.091Z,98477.56
2022-11-16T09:18:30.657Z,98494.69
2022-11-16T09:20:57.375Z,98505.81
2022-11-16T09:23:25.674Z,98518.66
2022-11-16T09:25:53.394Z,98528.94
2022-11-16T09:28:21.349Z,98520.38
2022-11-16T09:30:50.745Z,98528.06
2022-11-16T09:33:17.728Z,98530.66
2022-11-16T09:35:44.325Z,98531.50
2022-11-16T09:38:14.870Z,98540.94
2022-11-16T09:40:48.306Z,98539.22
2022-11-16T09:43:20.987Z,98564.06
2022-11-16T09:46:20.376Z,98573.50
2022-11-16T09:48:48.451Z,98593.19
2022-11-16T09:51:17.093Z,98602.63
2022-11-16T09:54:14.598Z,98629.19
2022-11-16T09:56:42.352Z,98645.47
2022-11-16T09:59:12.186Z,98654.94
2022-11-16T10:01:47.174Z,98665.22
2022-11-16T10:04:16.551Z,98670.34
2022-11-16T10:06:52.623Z,98685.78
2022-11-16T10:09:21.137Z,98689.22
2022-11-16T10:11:55.457Z,98673.78
2022-11-16T10:14:24.932Z,98684.94
2022-11-16T10:17:06.562Z,98690.09
2022-11-16T10:19:58.693Z,98686.66
2022-11-16T10:22:31.430Z,98701.25
2022-11-16T10:24:59.574Z,98709.81
2022-11-16T10:27:47.553Z,98728.69
2022-11-16T10:30:20.143Z,98745.84
2022-11-16T10:32:53.772Z,98766.41
2022-11-16T10:35:30.405Z,98780.97
2022-11-16T10:37:59.808Z,98794.72
2022-11-16T10:40:36.214Z,98808.44
2022-11-16T10:43:15.526Z,98825.63
2022-11-16T10:46:01.498Z,98846.22
2022-11-16T10:49:01.829Z,98851.38
2022-11-16T10:51:28.379Z,98861.66
2022-11-16T10:53:56.041Z,98872.81
2022-11-16T10:56:37.615Z,98869.38
2022-11-16T10:59:10.015Z,98866.81
2022-11-16T11:01:50.086Z,98858.25
2022-11-16T11:04:31.266Z,98852.22
2022-11-16T11:07:21.974Z,98841.91
2022-11-16T11:09:57.406Z,98835.06
2022-11-16T11:12:41.492Z,98831.59
2022-11-16T11:15:11.172Z,98825.59
2022-11-16T11:17:43.456Z,98816.16
2022-11-16T11:20:16.237Z,98818.72
2022-11-16T11:22:49.090Z,98807.56
2022-11-16T11:25:29.378Z,98801.53
2022-11-16T11:28:21.371Z,98804.09
2022-11-16T11:31:02.838Z,98786.94
2022-11-16T11:33:49.400Z,98782.63
2022-11-16T11:36:22.660Z,98778.28
2022-11-16T11:39:03.370Z,98771.41
2022-11-16T11:41:36.495Z,98769.69
2022-11-16T11:44:29.718Z,98767.91
2022-11-16T11:50:44.579Z,98772.19
2022-11-16T11:53:29.558Z,98771.31
2022-11-16T11:55:58.852Z,98760.94
2022-11-16T11:58:38.749Z,98760.94
2022-11-16T12:01:26.999Z,98761.72
2022-11-16T12:04:11.964Z,98759.22
2022-11-16T12:06:47.405Z,98767.78
2022-11-16T12:09:35.300Z,98770.31
2022-11-16T12:12:13.416Z,98774.59
2022-11-16T12:15:08.573Z,98778.06
2022-11-16T12:17:35.066Z,98766.84
2022-11-16T12:20:40.519Z,98759.97
2022-11-16T12:23:22.269Z,98753.97
2022-11-16T12:26:19.535Z,98735.03
2022-11-16T12:28:58.309Z,98734.13
2022-11-16T12:31:42.136Z,98732.50
2022-11-16T12:34:27.953Z,98730.75
2022-11-16T12:37:10.978Z,98730.81
2022-11-16T12:39:53.300Z,98714.38
2022-11-16T12:42:45.334Z,98702.22
2022-11-16T12:45:32.204Z,98694.47
2022-11-16T12:48:08.817Z,98694.47
2022-11-16T12:50:45.456Z,98707.38
2022-11-16T12:53:33.721Z,98701.41
2022-11-16T12:56:34.219Z,98702.31
2022-11-16T12:59:19.476Z,98704.94
2022-11-16T13:02:00.640Z,98696.38
2022-11-16T13:04:43.187Z,98692.03
2022-11-16T13:07:12.988Z,98690.25
2022-11-16T13:09:49.251Z,98691.09
2022-11-16T13:12:23.457Z,98682.44
2022-11-16T13:14:53.034Z,98682.41
2022-11-16T13:17:22.868Z,98691.09
2022-11-16T13:20:05.543Z,98693.59
2022-11-16T13:22:36.608Z,98696.22
2022-11-16T13:25:03.784Z,98686.66
2022-11-16T13:27:59.558Z,98676.19
2022-11-16T13:30:35.079Z,98665.22
2022-11-16T13:33:25.850Z,98654.94
2022-11-16T13:35:52.445Z,98642.91
2022-11-16T13:38:54.094Z,98636.75
2022-11-16T13:41:42.063Z,98635.88
2022-11-16T13:44:20.718Z,98631.59
2022-11-16T13:46:55.797Z,98630.75
2022-11-16T13:49:28.864Z,98628.19
2022-11-16T13:52:07.041Z,98616.16
2022-11-16T13:54:48.986Z,98618.75
2022-11-16T13:57:34.453Z,98618.63
2022-11-16T14:00:00.944Z,98615.22
2022-11-16T14:02:33.573Z,98610.06
2022-11-16T14:05:36.853Z,98615.25
2022-11-16T14:08:37.128Z,98608.25
2022-11-16T14:11:05.365Z,98603.09
2022-11-16T14:13:47.482Z,98588.28
2022-11-16T14:16:20.184Z,98588.56
2022-11-16T14:18:46.751Z,98582.63
2022-11-16T14:21:40.361Z,98580.06
2022-11-16T14:24:25.005Z,98579.16
2022-11-16T14:27:06.672Z,98569.56
2022-11-16T14:30:02.795Z,98579.91
2022-11-16T14:32:39.783Z,98587.66
2022-11-16T14:35:32.683Z,98591.06
2022-11-16T14:38:03.343Z,98596.97
2022-11-16T14:40:43.028Z,98589.28
2022-11-16T14:43:19.813Z,98593.66
2022-11-16T14:45:54.043Z,98589.44
2022-11-16T14:48:25.924Z,98587.75
2022-11-16T14:51:08.690Z,98571.41
2022-11-16T14:53:39.395Z,98560.97
2022-11-16T14:56:12.137Z,98545.44
2022-11-16T14:58:39.537Z,98550.56
2022-11-16T15:01:14.782Z,98542.06
2022-11-16T15:03:54.263Z,98525.56
2022-11-16T15:06:21.885Z,98516.91
2022-11-16T15:08:54.263Z,98511.81
2022-11-16T15:11:49.608Z,98511.00
2022-11-16T15:14:25.841Z,98499.84
2022-11-16T15:16:55.428Z,98495.50
2022-11-16T15:19:24.076Z,98486.88
2022-11-16T15:21:56.395Z,98480.81
2022-11-16T15:24:32.027Z,98484.41
2022-11-16T15:27:23.641Z,98493.06
2022-11-16T15:29:50.750Z,98478.38
2022-11-16T15:32:17.941Z,98478.31
2022-11-16T15:34:54.489Z,98481.66
2022-11-16T15:37:31.578Z,98473.06
2022-11-16T15:40:00.049Z,98478.31
2022-11-16T15:42:28.359Z,98457.56
2022-11-16T15:44:56.150Z,98440.31
2022-11-16T15:47:23.720Z,98442.16
2022-11-16T15:49:53.001Z,98450.78
2022-11-16T15:52:56.237Z,98462.97
2022-11-16T15:55:28.975Z,98471.66
2022-11-16T15:58:27.891Z,98479.41
2022-11-16T16:00:55.877Z,98487.22
2022-11-16T16:03:28.687Z,98485.56
2022-11-16T16:05:55.909Z,98479.56
2022-11-16T16:08:27.695Z,98483.00
2022-11-16T16:10:59.555Z,98476.13
2022-11-16T16:13:30.296Z,98471.94
2022-11-16T16:16:12.375Z,98477.19
2022-11-16T16:18:43.272Z,98472.03
2022-11-16T16:21:11.122Z,98472.03
2022-11-16T16:23:46.621Z,98465.88
2022-11-16T16:26:14.955Z,98459.03
2022-11-16T16:28:41.800Z,98455.66
2022-11-16T16:31:09.396Z,98453.06
2022-11-16T16:33:37.032Z,98447.91
2022-11-16T16:36:04.373Z,98454.94
2022-11-16T16:38:31.640Z,98459.34
2022-11-16T16:41:04.149Z,98461.97
2022-11-16T16:43:32.228Z,98470.63
2022-11-16T16:46:05.742Z,98470.63
2022-11-16T16:48:33.306Z,98475.78
2022-11-16T16:51:00.118Z,98470.59
2022-11-16T16:53:29.854Z,98474.88
2022-11-16T16:55:57.645Z,98470.56
2022-11-16T16:58:24.977Z,98458.41
2022-11-16T17:00:56.920Z,98459.34
2022-11-16T17:03:26.810Z,98461.84
2022-11-16T17:06:00.785Z,98451.53
2022-11-16T17:08:33.283Z,98449.03
2022-11-16T17:11:01.253Z,98445.63
2022-11-16T17:13:29.605Z,98438.88
2022-11-16T17:15:56.867Z,98439.69
2022-11-16T17:18:25.259Z,98446.63
2022-11-16T17:20:52.974Z,98455.22
2022-11-16T17:23:20.762Z,98453.56
2022-11-16T17:25:48.618Z,98456.19
2022-11-16T17:28:15.651Z,98457.00
2022-11-16T17:30:44.743Z,98461.31
2022-11-16T17:33:12.099Z,98465.63
2022-11-16T17:35:41.283Z,98463.00
2022-11-16T17:38:10.699Z,98452.66
2022-11-16T17:40:37.336Z,98455.28
2022-11-16T17:43:04.804Z,98453.53
2022-11-16T17:45:31.570Z,98453.56
2022-11-16T17:47:59.401Z,98454.41
2022-11-16T17:50:27.407Z,98463.00
2022-11-16T17:52:55.376Z,98459.63
2022-11-16T17:55:23.156Z,98462.25
2022-11-16T17:57:52.412Z,98461.34
2022-11-16T18:00:20.305Z,98476.81
2022-11-16T18:02:47.804Z,98476.84
2022-11-16T18:05:15.860Z,98478.50
2022-11-16T18:07:43.654Z,98484.59
2022-11-16T18:10:12.721Z,98467.34
2022-11-16T18:12:43.214Z,98475.94
2022-11-16T18:17:57.721Z,98451.03
2022-11-16T18:20:24.354Z,98447.63
2022-11-16T18:22:50.916Z,98438.94
2022-11-16T18:25:17.919Z,98444.19
2022-11-16T18:27:44.725Z,98450.28
2022-11-16T18:30:11.620Z,98455.44
2022-11-16T18:32:38.498Z,98449.47
2022-11-16T18:35:10.163Z,98460.69
2022-11-16T18:37:37.178Z,98464.13
2022-11-16T18:40:04.509Z,98463.25
2022-11-16T18:42:34.032Z,98459.81
2022-11-16T18:45:00.609Z,98450.41
2022-11-16T18:47:27.215Z,98443.56
2022-11-16T18:49:53.878Z,98440.13
2022-11-16T18:52:20.395Z,98447.91
2022-11-16T18:54:50.515Z,98449.59
2022-11-16T18:57:17.663Z,98449.59
2022-11-16T18:59:44.212Z,98452.25
2022-11-16T19:02:12.509Z,98442.75
2022-11-16T19:04:40.277Z,98439.34
2022-11-16T19:07:07.667Z,98435.09
2022-11-16T19:09:34.341Z,98436.84
2022-11-16T19:12:01.003Z,98441.97
2022-11-16T19:14:27.506Z,98452.22
2022-11-16T19:16:57.169Z,98444.53
2022-11-16T19:19:24.262Z,98450.53
2022-11-16T19:21:51.899Z,98449.66
2022-11-16T19:24:19.246Z,98451.28
2022-11-16T19:26:45.953Z,98453.88
2022-11-16T19:29:12.493Z,98453.84
2022-11-16T19:31:39.020Z,98450.47
2022-11-16T19:34:10.485Z,98449.53
2022-11-16T19:36:37.298Z,98448.69
2022-11-16T19:39:04.875Z,98446.97
2022-11-16T19:41:31.637Z,98448.69
2022-11-16T19:44:01.487Z,98447.81
2022-11-16T19:46:31.076Z,98445.25
2022-11-16T19:48:58.416Z,98437.59
2022-11-16T19:51:26.262Z,98432.47
2022-11-16T19:53:53.215Z,98428.16
2022-11-16T19:56:21.736Z,98432.47
2022-11-16T19:58:48.346Z,98434.28
2022-11-16T20:01:47.542Z,98424.00
2022-11-16T20:04:15.232Z,98427.44
2022-11-16T20:06:41.803Z,98422.34
2022-11-16T20:09:11.900Z,98416.28
2022-11-16T20:11:40.684Z,98425.84
2022-11-16T20:14:10.131Z,98427.56
2022-11-16T20:16:39.664Z,98436.13
2022-11-16T20:19:07.870Z,98438.72
2022-11-16T20:21:36.868Z,98435.34
2022-11-16T20:24:07.048Z,98413.88
2022-11-16T20:26:35.218Z,98414.69
2022-11-16T20:29:02.162Z,98416.47
2022-11-16T20:31:30.554Z,98413.94
2022-11-16T20:34:01.507Z,98413.09
2022-11-16T20:36:29.716Z,98415.66
2022-11-16T20:38:58.283Z,98403.66
2022-11-16T20:41:26.986Z,98395.91
2022-11-16T20:43:56.685Z,98383.91
2022-11-16T20:46:25.837Z,98389.06
2022-11-16T20:48:52.541Z,98378.81
2022-11-16T20:51:20.592Z,98376.25
2022-11-16T20:53:48.580Z,98375.38
2022-11-16T20:56:17.300Z,98370.22
2022-11-16T20:58:43.806Z,98374.53
2022-11-16T21:01:18.593Z,98368.47
2022-11-16T21:03:45.613Z,98364.16
2022-11-16T21:06:13.416Z,98364.22
2022-11-16T21:08:41.013Z,98361.59
2022-11-16T21:11:15.587Z,98360.75
2022-11-16T21:14:00.967Z,98362.53
2022-11-16T21:16:27.515Z,98353.09
2022-11-16T21:18:55.089Z,98347.13
2022-11-16T21:21:22.203Z,98329.97
2022-11-16T21:23:51.909Z,98332.50
2022-11-16T21:26:20.920Z,98318.75
2022-11-16T21:28:47.638Z,98336.72
2022-11-16T21:31:20.759Z,98341.06
2022-11-16T21:33:48.641Z,98336.81
2022-11-16T21:36:18.881Z,98335.91
2022-11-16T21:38:45.911Z,98336.78
2022-11-16T21:41:14.626Z,98334.19
2022-11-16T21:43:41.737Z,98341.91
2022-11-16T21:46:13.350Z,98336.78
2022-11-16T21:48:41.114Z,98348.75
2022-11-16T21:51:14.893Z,98363.38
2022-11-16T21:53:42.046Z,98371.13
2022-11-16T21:56:13.102Z,98367.63
2022-11-16T21:58:40.303Z,98366.75
2022-11-16T22:01:07.347Z,98371.94
2022-11-16T22:03:34.427Z,98371.13
2022-11-16T22:06:21.884Z,98364.28
2022-11-16T22:08:48.945Z,98368.47
2022-11-16T22:11:16.661Z,98371.88
2022-11-16T22:13:43.849Z,98391.72
2022-11-16T22:16:12.558Z,98383.94
2022-11-16T22:18:39.390Z,98386.50
2022-11-16T22:21:06.713Z,98407.16
2022-11-16T22:23:34.309Z,98399.47
2022-11-16T22:26:03.079Z,98368.53
2022-11-16T22:28:30.388Z,98389.09
2022-11-16T22:31:01.685Z,98420.00
2022-11-16T22:33:29.110Z,98395.13
2022-11-16T22:35:56.049Z,98381.34
2022-11-16T22:38:23.404Z,98387.38
2022-11-16T22:40:54.902Z,98402.84
2022-11-16T22:43:24.842Z,98414.03
2022-11-16T22:45:51.416Z,98396.88
2022-11-16T22:48:18.322Z,98396.84
2022-11-16T22:50:45.054Z,98418.28
2022-11-16T22:53:11.702Z,98421.75
2022-11-16T22:55:38.816Z,98410.50
2022-11-16T22:58:06.066Z,98413.06
2022-11-16T23:00:38.926Z,98431.13
2022-11-16T23:03:07.517Z,98456.03
2022-11-16T23:05:34.102Z,98461.16
2022-11-16T23:08:00.680Z,98413.06
2022-11-16T23:10:27.246Z,98422.50
2022-11-16T23:13:12.390Z,98449.13
2022-11-16T23:15:51.272Z,98467.13
2022-11-16T23:18:19.625Z,98463.75
2022-11-16T23:21:08.885Z,98452.63
2022-11-16T23:23:53.618Z,98450.00
2022-11-16T23:26:41.784Z,98453.44
2022-11-16T23:29:10.756Z,98459.47
2022-11-16T23:31:38.096Z,98450.94
2022-11-16T23:34:05.455Z,98443.19
2022-11-16T23:36:32.020Z,98449.19
2022-11-16T23:38:58.487Z,98444.88
2022-11-16T23:41:43.302Z,98442.34
2022-11-16T23:44:09.654Z,98441.47
2022-11-16T23:46:36.226Z,98432.00
2022-11-16T23:49:02.865Z,98450.91
2022-11-16T23:51:29.455Z,98451.72
2022-11-16T23:53:56.154Z,98444.03
2022-11-16T23:56:23.573Z,98440.56
2022-11-16T23:58:50.233Z,98453.50
